createdAt,value
2023-03-08T00:00:26.990Z,13.4
2023-03-08T00:01:26.989Z,8.8
2023-03-08T00:02:27.036Z,8.9
2023-03-08T00:03:27.076Z,8.9
2023-03-08T00:04:27.129Z,14.200000000000001
2023-03-08T00:05:26.997Z,13.4
2023-03-08T00:06:27.009Z,16.3
2023-03-08T00:07:26.998Z,9.700000000000001
2023-03-08T00:08:27.048Z,13.8
2023-03-08T00:09:27.004Z,13.3
2023-03-08T00:10:27.001Z,21.700000000000003
2023-03-08T00:11:26.986Z,11.8
2023-03-08T00:12:27.011Z,8.8
2023-03-08T00:13:27.012Z,13.5
2023-03-08T00:14:27.024Z,7
2023-03-08T00:15:27.029Z,9.3
2023-03-08T00:16:27.077Z,8.700000000000001
2023-03-08T00:17:27.012Z,4.6000000000000005
2023-03-08T00:18:27.035Z,5.9
2023-03-08T00:19:27.036Z,6.9
2023-03-08T00:20:27.042Z,9.600000000000001
2023-03-08T00:21:27.012Z,10.5
2023-03-08T00:22:27.023Z,5.300000000000001
2023-03-08T00:23:27.023Z,10
2023-03-08T00:24:27.037Z,10.100000000000001
2023-03-08T00:25:27.019Z,8.1
2023-03-08T00:26:27.031Z,6.5
2023-03-08T00:27:27.027Z,6.5
2023-03-08T00:28:27.031Z,5.4
2023-03-08T00:29:27.116Z,4.5
2023-03-08T00:30:27.177Z,7.1000000000000005
2023-03-08T00:31:27.088Z,9.1
2023-03-08T00:32:27.077Z,4.2
2023-03-08T00:33:27.045Z,13
2023-03-08T00:34:27.034Z,7.5
2023-03-08T00:35:27.060Z,6.800000000000001
2023-03-08T00:36:27.043Z,4.1000000000000005
2023-03-08T00:37:27.059Z,11.200000000000001
2023-03-08T00:38:27.046Z,6.5
2023-03-08T00:39:27.039Z,6.9
2023-03-08T00:40:27.882Z,7.6000000000000005
2023-03-08T00:41:27.057Z,9.1
2023-03-08T00:42:27.055Z,6.1000000000000005
2023-03-08T00:43:27.057Z,3.8000000000000003
2023-03-08T00:44:27.065Z,4.4
2023-03-08T00:45:27.066Z,4.800000000000001
2023-03-08T00:46:27.217Z,5.300000000000001
2023-03-08T00:47:27.066Z,5
2023-03-08T00:48:27.062Z,6.5
2023-03-08T00:49:27.068Z,2
2023-03-08T00:50:27.066Z,6.6000000000000005
2023-03-08T00:51:27.071Z,3.5
2023-03-08T00:52:27.078Z,4.5
2023-03-08T00:53:27.070Z,4.7
2023-03-08T00:54:27.069Z,2.9000000000000004
2023-03-08T00:55:27.075Z,5.4
2023-03-08T00:56:27.081Z,4.7
2023-03-08T00:57:27.072Z,2.4000000000000004
2023-03-08T00:58:27.090Z,2.9000000000000004
2023-03-08T00:59:27.079Z,3.8000000000000003
2023-03-08T01:00:27.081Z,0
2023-03-08T01:01:27.105Z,9
2023-03-08T01:02:27.101Z,6.6000000000000005
2023-03-08T01:03:27.105Z,6.800000000000001
2023-03-08T01:04:27.088Z,7.2
2023-03-08T01:05:27.098Z,7
2023-03-08T01:06:27.090Z,4.2
2023-03-08T01:07:27.095Z,3.8000000000000003
2023-03-08T01:08:27.118Z,0
2023-03-08T01:09:27.087Z,0
2023-03-08T01:10:27.090Z,2.7
2023-03-08T01:11:27.103Z,1.7000000000000002
2023-03-08T01:12:27.103Z,1.4000000000000001
2023-03-08T01:13:27.110Z,9.9
2023-03-08T01:14:27.101Z,8.200000000000001
2023-03-08T01:15:27.092Z,6.800000000000001
2023-03-08T01:16:27.101Z,3.6
2023-03-08T01:17:27.095Z,6
2023-03-08T01:18:27.131Z,4.4
2023-03-08T01:19:27.111Z,1.8
2023-03-08T01:20:27.108Z,5.1000000000000005
2023-03-08T01:21:27.122Z,1.6
2023-03-08T01:22:27.122Z,4.6000000000000005
2023-03-08T01:23:27.112Z,4.4
2023-03-08T01:24:27.120Z,3.8000000000000003
2023-03-08T01:25:27.155Z,0
2023-03-08T01:26:27.134Z,0
2023-03-08T01:27:27.116Z,0
2023-03-08T01:28:27.115Z,0
2023-03-08T01:29:27.154Z,2.6
2023-03-08T01:30:27.118Z,4.2
2023-03-08T01:31:27.112Z,3.5
2023-03-08T01:32:27.170Z,0
2023-03-08T01:33:27.115Z,5
2023-03-08T01:34:27.138Z,0
2023-03-08T01:35:27.137Z,0
2023-03-08T01:36:27.135Z,0
2023-03-08T01:37:27.142Z,0
2023-03-08T01:38:27.141Z,0
2023-03-08T01:39:27.137Z,0
2023-03-08T01:40:27.143Z,0
2023-03-08T01:41:27.168Z,2.5
2023-03-08T01:42:27.131Z,2
2023-03-08T01:43:27.142Z,5.9
2023-03-08T01:44:27.182Z,4.5
2023-03-08T01:45:27.156Z,3.6
2023-03-08T01:46:27.157Z,4
2023-03-08T01:47:27.129Z,2.2
2023-03-08T01:48:27.142Z,5.1000000000000005
2023-03-08T01:49:27.141Z,3
2023-03-08T01:50:27.165Z,4.9
2023-03-08T01:51:27.143Z,1.8
2023-03-08T01:52:27.136Z,7.4
2023-03-08T01:53:27.148Z,0.9
2023-03-08T01:54:27.152Z,4.4
2023-03-08T01:55:27.146Z,2.9000000000000004
2023-03-08T01:56:27.143Z,2.2
2023-03-08T01:57:27.164Z,6.6000000000000005
2023-03-08T01:58:27.156Z,6.300000000000001
2023-03-08T01:59:27.158Z,3.8000000000000003
2023-03-08T02:00:27.150Z,1.2000000000000002
2023-03-08T02:01:27.226Z,7.300000000000001
2023-03-08T02:02:28.405Z,4.7
2023-03-08T02:03:27.155Z,7.800000000000001
2023-03-08T02:04:27.159Z,7.9
2023-03-08T02:05:27.169Z,8.6
2023-03-08T02:06:27.177Z,7.300000000000001
2023-03-08T02:07:27.163Z,6.1000000000000005
2023-03-08T02:08:27.161Z,8.4
2023-03-08T02:09:27.173Z,4
2023-03-08T02:10:27.167Z,4.6000000000000005
2023-03-08T02:11:27.173Z,6.7
2023-03-08T02:12:27.170Z,2.4000000000000004
2023-03-08T02:13:27.163Z,3.6
2023-03-08T02:14:27.173Z,0
2023-03-08T02:15:27.161Z,3
2023-03-08T02:16:27.173Z,0
2023-03-08T02:17:27.174Z,0
2023-03-08T02:18:27.169Z,0
2023-03-08T02:19:27.163Z,0.9
2023-03-08T02:20:27.180Z,0
2023-03-08T02:21:27.172Z,0
2023-03-08T02:22:27.208Z,0
2023-03-08T02:23:27.169Z,0
2023-03-08T02:24:27.164Z,0
2023-03-08T02:25:27.212Z,0
2023-03-08T02:26:27.180Z,0
2023-03-08T02:27:27.212Z,3.5
2023-03-08T02:28:27.187Z,5.300000000000001
2023-03-08T02:29:27.186Z,1.6
2023-03-08T02:30:27.182Z,0
2023-03-08T02:31:27.207Z,0
2023-03-08T02:32:27.231Z,0
2023-03-08T02:33:27.193Z,0
2023-03-08T02:34:27.181Z,0
2023-03-08T02:35:27.184Z,3.2
2023-03-08T02:36:27.187Z,0
2023-03-08T02:37:27.196Z,0
2023-03-08T02:38:27.214Z,0
2023-03-08T02:39:27.194Z,0
2023-03-08T02:40:27.196Z,0
2023-03-08T02:41:27.195Z,0
2023-03-08T02:42:27.211Z,0
2023-03-08T02:43:27.207Z,0
2023-03-08T02:44:27.212Z,0
2023-03-08T02:45:27.186Z,0
2023-03-08T02:46:27.209Z,0
2023-03-08T02:47:27.215Z,0
2023-03-08T02:48:27.196Z,0
2023-03-08T02:49:27.209Z,0
2023-03-08T02:50:27.201Z,0
2023-03-08T02:51:27.219Z,0
2023-03-08T02:52:27.199Z,0
2023-03-08T02:53:27.193Z,0
2023-03-08T02:54:27.218Z,0
2023-03-08T02:55:27.194Z,0
2023-03-08T02:56:27.200Z,0
2023-03-08T02:57:27.204Z,0
2023-03-08T02:58:27.201Z,0
2023-03-08T02:59:27.208Z,0
2023-03-08T03:00:27.203Z,0
2023-03-08T03:01:27.262Z,0
2023-03-08T03:02:27.221Z,0
2023-03-08T03:03:27.221Z,0
2023-03-08T03:04:27.201Z,0
2023-03-08T03:05:27.214Z,0
2023-03-08T03:06:27.264Z,0
2023-03-08T03:07:27.194Z,0
2023-03-08T03:08:27.204Z,0
2023-03-08T03:09:27.225Z,0
2023-03-08T03:10:27.322Z,0
2023-03-08T03:11:27.206Z,0
2023-03-08T03:12:27.219Z,0
2023-03-08T03:13:27.220Z,0
2023-03-08T03:14:27.201Z,0
2023-03-08T03:15:27.199Z,0
2023-03-08T03:16:27.204Z,0
2023-03-08T03:17:27.217Z,0
2023-03-08T03:18:27.220Z,0
2023-03-08T03:19:27.196Z,0
2023-03-08T03:20:27.210Z,0
2023-03-08T03:21:27.195Z,0
2023-03-08T03:22:27.200Z,0
2023-03-08T03:23:27.200Z,0
2023-03-08T03:24:27.213Z,0
2023-03-08T03:25:27.198Z,0
2023-03-08T03:26:27.217Z,0
2023-03-08T03:27:27.202Z,0
2023-03-08T03:28:27.192Z,0
2023-03-08T03:29:27.217Z,0
2023-03-08T03:30:27.193Z,0
2023-03-08T03:31:27.252Z,0
2023-03-08T03:32:27.261Z,0
2023-03-08T03:33:27.192Z,0
2023-03-08T03:34:27.212Z,0
2023-03-08T03:35:27.203Z,0
2023-03-08T03:36:27.205Z,0
2023-03-08T03:37:27.227Z,0
2023-03-08T03:38:27.210Z,0
2023-03-08T03:39:27.207Z,0
2023-03-08T03:40:27.222Z,0
2023-03-08T03:41:27.209Z,0
2023-03-08T03:42:27.337Z,0
2023-03-08T03:43:27.230Z,0
2023-03-08T03:44:27.225Z,0
2023-03-08T03:45:27.232Z,0
2023-03-08T03:46:27.243Z,0
2023-03-08T03:47:27.231Z,0
2023-03-08T03:48:27.241Z,0
2023-03-08T03:49:27.253Z,0
2023-03-08T03:50:27.233Z,0
2023-03-08T03:51:27.254Z,0
2023-03-08T03:52:27.235Z,0
2023-03-08T03:53:27.247Z,0
2023-03-08T03:54:27.233Z,0
2023-03-08T03:55:27.241Z,0
2023-03-08T03:56:27.239Z,0
2023-03-08T03:57:27.242Z,0
2023-03-08T03:58:27.274Z,0
2023-03-08T03:59:27.259Z,0
2023-03-08T04:00:27.245Z,0
2023-03-08T04:01:27.265Z,0
2023-03-08T04:02:27.264Z,0
2023-03-08T04:03:27.429Z,0
2023-03-08T04:04:27.253Z,0
2023-03-08T04:05:27.256Z,0
2023-03-08T04:06:27.275Z,0
2023-03-08T04:07:27.259Z,0
2023-03-08T04:08:27.271Z,0
2023-03-08T04:09:27.287Z,0
2023-03-08T04:10:27.285Z,0
2023-03-08T04:11:27.260Z,0
2023-03-08T04:12:27.286Z,0
2023-03-08T04:13:27.272Z,0
2023-03-08T04:14:27.310Z,0
2023-03-08T04:15:27.290Z,0
2023-03-08T04:16:29.164Z,0
2023-03-08T04:17:27.278Z,0
2023-03-08T04:18:27.273Z,0
2023-03-08T04:19:27.274Z,0
2023-03-08T04:20:27.296Z,0
2023-03-08T04:21:27.284Z,0
2023-03-08T04:22:27.296Z,0
2023-03-08T04:23:27.271Z,0
2023-03-08T04:24:27.282Z,0
2023-03-08T04:25:27.279Z,0
2023-03-08T04:26:27.273Z,0
2023-03-08T04:27:27.286Z,0
2023-03-08T04:28:27.300Z,0
2023-03-08T04:29:27.282Z,0
2023-03-08T04:30:27.311Z,3.7
2023-03-08T04:31:27.403Z,2.7
2023-03-08T04:32:27.324Z,3.9000000000000004
2023-03-08T04:33:27.301Z,4.7
2023-03-08T04:34:27.287Z,2.5
2023-03-08T04:35:27.291Z,3.5
2023-03-08T04:36:27.304Z,3.9000000000000004
2023-03-08T04:37:27.342Z,3
2023-03-08T04:38:27.293Z,4.7
2023-03-08T04:39:27.320Z,4.2
2023-03-08T04:40:27.310Z,6.300000000000001
2023-03-08T04:41:27.303Z,6.6000000000000005
2023-03-08T04:42:27.309Z,5.4
2023-03-08T04:43:27.302Z,6.7
2023-03-08T04:44:27.311Z,0.5
2023-03-08T04:45:27.301Z,0
2023-03-08T04:46:27.447Z,0
2023-03-08T04:47:27.308Z,0
2023-03-08T04:48:27.309Z,0
2023-03-08T04:49:27.322Z,0
2023-03-08T04:50:27.315Z,0
2023-03-08T04:51:27.330Z,0
2023-03-08T04:52:27.312Z,0
2023-03-08T04:53:27.322Z,0
2023-03-08T04:54:27.330Z,0
2023-03-08T04:55:27.347Z,0
2023-03-08T04:56:27.325Z,0
2023-03-08T04:57:27.329Z,0
2023-03-08T04:58:27.328Z,0
2023-03-08T04:59:27.333Z,0
2023-03-08T05:00:27.339Z,0
2023-03-08T05:01:27.323Z,0
2023-03-08T05:02:27.381Z,0
2023-03-08T05:03:27.339Z,0
2023-03-08T05:04:27.349Z,0
2023-03-08T05:05:27.340Z,0
2023-03-08T05:06:27.334Z,0
2023-03-08T05:07:27.340Z,0
2023-03-08T05:08:27.341Z,0
2023-03-08T05:09:27.350Z,0
2023-03-08T05:10:27.341Z,0
2023-03-08T05:11:27.331Z,0
2023-03-08T05:12:27.336Z,0
2023-03-08T05:13:27.345Z,0
2023-03-08T05:14:27.352Z,0
2023-03-08T05:15:27.338Z,0
2023-03-08T05:16:27.439Z,0
2023-03-08T05:17:27.356Z,0
2023-03-08T05:18:27.445Z,0
2023-03-08T05:19:27.345Z,0
2023-03-08T05:20:27.352Z,0
2023-03-08T05:21:27.345Z,0
2023-03-08T05:22:27.367Z,0
2023-03-08T05:23:28.556Z,0
2023-03-08T05:24:27.350Z,0
2023-03-08T05:25:27.378Z,3.2
2023-03-08T05:26:27.357Z,4.4
2023-03-08T05:27:27.371Z,2.3000000000000003
2023-03-08T05:28:27.351Z,3.5
2023-03-08T05:29:27.361Z,0
2023-03-08T05:30:27.375Z,0
2023-03-08T05:31:27.482Z,0
2023-03-08T05:32:27.476Z,0
2023-03-08T05:33:27.358Z,0
2023-03-08T05:34:27.393Z,0
2023-03-08T05:35:27.365Z,0
2023-03-08T05:36:27.369Z,0
2023-03-08T05:37:27.679Z,0
2023-03-08T05:38:27.379Z,0
2023-03-08T05:39:27.386Z,0
2023-03-08T05:40:27.363Z,0
2023-03-08T05:41:27.380Z,0
2023-03-08T05:42:27.396Z,0
2023-03-08T05:43:27.388Z,0
2023-03-08T05:44:27.389Z,0
2023-03-08T05:45:27.500Z,0
2023-03-08T05:46:27.476Z,0
2023-03-08T05:47:27.378Z,0
2023-03-08T05:48:27.397Z,0
2023-03-08T05:49:27.382Z,0
2023-03-08T05:50:27.402Z,0
2023-03-08T05:51:27.381Z,0
2023-03-08T05:52:27.382Z,0
2023-03-08T05:53:27.395Z,0
2023-03-08T05:54:27.406Z,0
2023-03-08T05:55:27.428Z,0
2023-03-08T05:56:27.391Z,0
2023-03-08T05:57:27.388Z,0
2023-03-08T05:58:27.380Z,0
2023-03-08T05:59:27.385Z,0
2023-03-08T06:00:27.429Z,0
2023-03-08T06:01:27.410Z,0
2023-03-08T06:02:27.446Z,0
2023-03-08T06:03:27.411Z,0
2023-03-08T06:04:27.401Z,0
2023-03-08T06:05:27.401Z,0
2023-03-08T06:06:27.419Z,0
2023-03-08T06:07:27.398Z,0
2023-03-08T06:08:27.415Z,0
2023-03-08T06:09:27.415Z,0
2023-03-08T06:10:27.407Z,0
2023-03-08T06:11:27.410Z,0
2023-03-08T06:12:27.415Z,0
2023-03-08T06:13:27.429Z,0
2023-03-08T06:14:27.417Z,0
2023-03-08T06:15:27.421Z,0
2023-03-08T06:16:27.458Z,0
2023-03-08T06:17:27.413Z,0
2023-03-08T06:18:27.403Z,0
2023-03-08T06:19:27.414Z,0
2023-03-08T06:20:27.417Z,0
2023-03-08T06:21:27.419Z,0
2023-03-08T06:22:27.447Z,0
2023-03-08T06:23:27.413Z,0
2023-03-08T06:24:27.414Z,0
2023-03-08T06:25:27.434Z,0
2023-03-08T06:26:27.465Z,0
2023-03-08T06:27:27.433Z,0
2023-03-08T06:28:27.437Z,0
2023-03-08T06:29:27.422Z,0
2023-03-08T06:30:27.488Z,0
2023-03-08T06:31:27.434Z,0
2023-03-08T06:32:27.470Z,0
2023-03-08T06:33:27.449Z,0
2023-03-08T06:34:27.442Z,0
2023-03-08T06:35:27.489Z,0
2023-03-08T06:36:27.468Z,0
2023-03-08T06:37:27.452Z,0
2023-03-08T06:38:29.438Z,0
2023-03-08T06:39:27.458Z,0
2023-03-08T06:40:27.454Z,0
2023-03-08T06:41:27.449Z,0
2023-03-08T06:42:40.008Z,0
2023-03-08T06:43:27.454Z,0
2023-03-08T06:44:27.469Z,0
2023-03-08T06:45:27.451Z,0
2023-03-08T06:46:27.521Z,0
2023-03-08T06:47:27.458Z,0
2023-03-08T06:48:27.450Z,0
2023-03-08T06:49:27.462Z,0
2023-03-08T06:50:27.468Z,0
2023-03-08T06:51:27.457Z,0
2023-03-08T06:52:27.463Z,0
2023-03-08T06:53:27.467Z,0
2023-03-08T06:54:27.491Z,0
2023-03-08T06:55:27.479Z,0
2023-03-08T06:56:27.464Z,0
2023-03-08T06:57:27.469Z,0
2023-03-08T06:58:27.491Z,0
2023-03-08T06:59:27.478Z,0
2023-03-08T07:00:27.470Z,0
2023-03-08T07:01:27.486Z,0
2023-03-08T07:02:27.477Z,0
2023-03-08T07:03:27.469Z,0
2023-03-08T07:04:27.531Z,0
2023-03-08T07:05:27.487Z,0
2023-03-08T07:06:27.481Z,0
2023-03-08T07:07:27.542Z,0
2023-03-08T07:08:27.472Z,0
2023-03-08T07:09:27.478Z,0
2023-03-08T07:10:27.605Z,0
2023-03-08T07:11:27.485Z,0
2023-03-08T07:12:27.492Z,0
2023-03-08T07:13:27.487Z,0
2023-03-08T07:14:27.475Z,0
2023-03-08T07:15:27.503Z,0
2023-03-08T07:16:27.481Z,0
2023-03-08T07:17:27.477Z,0
2023-03-08T07:18:27.499Z,0
2023-03-08T07:19:27.480Z,0
2023-03-08T07:20:27.514Z,0
2023-03-08T07:21:27.485Z,0
2023-03-08T07:22:27.495Z,0
2023-03-08T07:23:27.481Z,0
2023-03-08T07:24:27.498Z,0
2023-03-08T07:25:27.485Z,0
2023-03-08T07:26:27.517Z,0
2023-03-08T07:27:27.490Z,0
2023-03-08T07:28:27.486Z,0
2023-03-08T07:29:27.509Z,0
2023-03-08T07:30:27.500Z,0
2023-03-08T07:31:27.482Z,0
2023-03-08T07:32:27.628Z,0
2023-03-08T07:33:27.492Z,0
2023-03-08T07:34:27.504Z,0
2023-03-08T07:35:27.505Z,0
2023-03-08T07:36:27.501Z,0
2023-03-08T07:37:27.500Z,0
2023-03-08T07:38:27.493Z,0
2023-03-08T07:39:27.496Z,0
2023-03-08T07:40:27.519Z,0
2023-03-08T07:41:27.496Z,0
2023-03-08T07:42:27.521Z,0
2023-03-08T07:43:27.512Z,0
2023-03-08T07:44:27.502Z,0
2023-03-08T07:45:27.507Z,0
2023-03-08T07:46:27.616Z,0
2023-03-08T07:47:27.529Z,0
2023-03-08T07:48:27.500Z,0
2023-03-08T07:49:27.521Z,0
2023-03-08T07:50:27.510Z,0
2023-03-08T07:51:27.509Z,0
2023-03-08T07:52:27.501Z,0
2023-03-08T07:53:27.520Z,0
2023-03-08T07:54:27.508Z,0
2023-03-08T07:55:27.522Z,0
2023-03-08T07:56:27.553Z,0
2023-03-08T07:57:27.524Z,0
2023-03-08T07:58:27.537Z,0
2023-03-08T07:59:27.517Z,0
2023-03-08T08:00:27.561Z,0
2023-03-08T08:01:27.513Z,3.9000000000000004
2023-03-08T08:02:27.518Z,2.6
2023-03-08T08:03:27.644Z,3
2023-03-08T08:04:27.517Z,1.7000000000000002
2023-03-08T08:05:27.624Z,0
2023-03-08T08:06:27.508Z,3.5
2023-03-08T08:07:27.536Z,0
2023-03-08T08:08:27.525Z,0
2023-03-08T08:09:27.510Z,0.5
2023-03-08T08:10:27.521Z,5.2
2023-03-08T08:11:27.521Z,0.6000000000000001
2023-03-08T08:12:27.537Z,0
2023-03-08T08:13:27.546Z,0
2023-03-08T08:14:27.541Z,0
2023-03-08T08:15:27.528Z,0
2023-03-08T08:16:27.587Z,0
2023-03-08T08:17:27.527Z,0
2023-03-08T08:18:27.531Z,3.1
2023-03-08T08:19:27.521Z,0
2023-03-08T08:20:27.521Z,0
2023-03-08T08:21:27.637Z,0
2023-03-08T08:22:27.533Z,0
2023-03-08T08:23:27.542Z,0
2023-03-08T08:24:27.522Z,0
2023-03-08T08:25:27.539Z,0
2023-03-08T08:26:27.525Z,0
2023-03-08T08:27:27.521Z,3.5
2023-03-08T08:28:27.547Z,0
2023-03-08T08:29:27.523Z,0
2023-03-08T08:30:27.575Z,0
2023-03-08T08:31:27.554Z,2.4000000000000004
2023-03-08T08:32:27.578Z,4.7
2023-03-08T08:33:27.534Z,3.1
2023-03-08T08:34:27.533Z,1.6
2023-03-08T08:35:41.007Z,0
2023-03-08T08:36:27.598Z,0
2023-03-08T08:37:27.553Z,0
2023-03-08T08:38:27.551Z,0
2023-03-08T08:39:27.549Z,5.1000000000000005
2023-03-08T08:40:28.422Z,3.1
2023-03-08T08:41:27.543Z,0
2023-03-08T08:42:27.551Z,0
2023-03-08T08:43:27.543Z,0
2023-03-08T08:44:27.574Z,0
2023-03-08T08:45:27.612Z,0
2023-03-08T08:46:27.582Z,0
2023-03-08T08:47:27.559Z,0
2023-03-08T08:48:27.562Z,7.1000000000000005
2023-03-08T08:49:27.570Z,0.9
2023-03-08T08:50:27.554Z,3.2
2023-03-08T08:51:27.571Z,6.7
2023-03-08T08:52:27.562Z,0
2023-03-08T08:53:27.570Z,2.9000000000000004
2023-03-08T08:54:27.669Z,3
2023-03-08T08:55:27.564Z,0
2023-03-08T08:56:28.631Z,0
2023-03-08T08:57:27.580Z,4.800000000000001
2023-03-08T08:58:27.590Z,5.6000000000000005
2023-03-08T08:59:27.565Z,8.200000000000001
2023-03-08T09:00:27.582Z,5
2023-03-08T09:01:27.573Z,6.5
2023-03-08T09:02:27.694Z,3
2023-03-08T09:03:27.580Z,5.300000000000001
2023-03-08T09:04:27.690Z,3.6
2023-03-08T09:05:27.587Z,0
2023-03-08T09:06:27.588Z,5.2
2023-03-08T09:07:27.587Z,2.4000000000000004
2023-03-08T09:08:27.583Z,0
2023-03-08T09:09:27.598Z,6.5
2023-03-08T09:10:27.600Z,0
2023-03-08T09:11:27.595Z,0
2023-03-08T09:12:27.593Z,0
2023-03-08T09:13:27.665Z,4.6000000000000005
2023-03-08T09:14:27.592Z,2.3000000000000003
2023-03-08T09:15:27.599Z,1.5
2023-03-08T09:16:27.698Z,6
2023-03-08T09:17:27.594Z,0
2023-03-08T09:18:27.625Z,2.4000000000000004
2023-03-08T09:19:27.603Z,0
2023-03-08T09:20:27.611Z,0
2023-03-08T09:21:27.625Z,0
2023-03-08T09:22:27.623Z,5.2
2023-03-08T09:23:27.626Z,8.1
2023-03-08T09:24:27.625Z,3.9000000000000004
2023-03-08T09:25:27.624Z,0
2023-03-08T09:26:27.658Z,0
2023-03-08T09:27:27.617Z,0
2023-03-08T09:28:27.634Z,0
2023-03-08T09:29:27.626Z,12.200000000000001
2023-03-08T09:30:27.617Z,8.200000000000001
2023-03-08T09:31:27.660Z,5
2023-03-08T09:32:27.612Z,1.4000000000000001
2023-03-08T09:33:27.614Z,2.7
2023-03-08T09:34:27.645Z,4.4
2023-03-08T09:35:27.704Z,3.4000000000000004
2023-03-08T09:36:27.690Z,4.2
2023-03-08T09:37:27.643Z,0
2023-03-08T09:38:27.632Z,0
2023-03-08T09:39:27.637Z,0
2023-03-08T09:40:27.635Z,0
2023-03-08T09:41:27.669Z,0
2023-03-08T09:42:27.644Z,0
2023-03-08T09:43:27.641Z,6.800000000000001
2023-03-08T09:44:27.657Z,0
2023-03-08T09:45:27.648Z,0
2023-03-08T09:46:27.669Z,3.6
2023-03-08T09:47:27.642Z,3.8000000000000003
2023-03-08T09:48:27.649Z,0
2023-03-08T09:49:27.666Z,0
2023-03-08T09:50:27.673Z,0
2023-03-08T09:51:27.689Z,6.1000000000000005
2023-03-08T09:52:27.643Z,6.1000000000000005
2023-03-08T09:53:27.682Z,5
2023-03-08T09:54:27.647Z,2.7
2023-03-08T09:55:27.706Z,0
2023-03-08T09:56:27.658Z,3.2
2023-03-08T09:57:27.716Z,0
2023-03-08T09:58:27.645Z,0
2023-03-08T09:59:27.656Z,0
2023-03-08T10:00:27.657Z,0
2023-03-08T10:01:27.668Z,2.8000000000000003
2023-03-08T10:02:27.666Z,2.5
2023-03-08T10:03:27.652Z,2.2
2023-03-08T10:04:27.679Z,0
2023-03-08T10:05:27.677Z,0
2023-03-08T10:06:27.685Z,4
2023-03-08T10:07:27.670Z,0
2023-03-08T10:08:27.659Z,0
2023-03-08T10:09:27.661Z,0
2023-03-08T10:10:27.685Z,5.7
2023-03-08T10:11:27.659Z,4.2
2023-03-08T10:12:27.662Z,5.6000000000000005
2023-03-08T10:13:27.702Z,2.9000000000000004
2023-03-08T10:14:27.662Z,0
2023-03-08T10:15:27.664Z,1.4000000000000001
2023-03-08T10:16:27.758Z,0
2023-03-08T10:17:27.680Z,0
2023-03-08T10:18:27.683Z,0
2023-03-08T10:19:27.674Z,0
2023-03-08T10:20:27.670Z,0
2023-03-08T10:21:27.688Z,0
2023-03-08T10:22:27.701Z,0
2023-03-08T10:23:27.669Z,0
2023-03-08T10:24:27.680Z,0
2023-03-08T10:25:27.664Z,0
2023-03-08T10:26:27.664Z,2.5
2023-03-08T10:27:27.667Z,2
2023-03-08T10:28:27.702Z,0
2023-03-08T10:29:27.678Z,0
2023-03-08T10:30:27.745Z,0
2023-03-08T10:31:27.729Z,0
2023-03-08T10:32:27.742Z,1.6
2023-03-08T10:33:27.694Z,0
2023-03-08T10:34:27.689Z,0
2023-03-08T10:35:27.683Z,0
2023-03-08T10:36:27.685Z,0
2023-03-08T10:37:27.680Z,0
2023-03-08T10:38:27.738Z,0
2023-03-08T10:39:27.705Z,0
2023-03-08T10:40:27.686Z,0
2023-03-08T10:41:27.704Z,0
2023-03-08T10:42:27.691Z,0
2023-03-08T10:43:27.700Z,0
2023-03-08T10:44:27.688Z,0
2023-03-08T10:45:27.704Z,0
2023-03-08T10:46:27.718Z,0
2023-03-08T10:47:27.701Z,0
2023-03-08T10:48:27.705Z,0
2023-03-08T10:49:28.138Z,0
2023-03-08T10:50:27.704Z,0
2023-03-08T10:51:27.748Z,0
2023-03-08T10:52:27.743Z,0
2023-03-08T10:53:27.714Z,0
2023-03-08T10:54:27.796Z,2.1
2023-03-08T10:55:27.718Z,0
2023-03-08T10:56:27.768Z,0
2023-03-08T10:57:27.739Z,0
2023-03-08T10:58:27.720Z,0
2023-03-08T10:59:27.730Z,0
2023-03-08T11:00:27.717Z,0
2023-03-08T11:01:27.725Z,0
2023-03-08T11:02:27.728Z,0
2023-03-08T11:03:27.722Z,0
2023-03-08T11:04:27.752Z,0
2023-03-08T11:05:27.735Z,0
2023-03-08T11:06:27.735Z,0.8
2023-03-08T11:07:27.727Z,0
2023-03-08T11:08:27.770Z,0
2023-03-08T11:09:27.739Z,0
2023-03-08T11:10:27.867Z,2.1
2023-03-08T11:11:27.740Z,0
2023-03-08T11:12:27.770Z,0
2023-03-08T11:13:27.742Z,0
2023-03-08T11:14:27.771Z,0
2023-03-08T11:15:27.741Z,0
2023-03-08T11:16:27.733Z,0
2023-03-08T11:17:27.736Z,0
2023-03-08T11:18:27.746Z,0
2023-03-08T11:19:27.741Z,0
2023-03-08T11:20:27.738Z,0
2023-03-08T11:21:27.761Z,0
2023-03-08T11:22:27.745Z,0
2023-03-08T11:23:27.745Z,0
2023-03-08T11:24:27.775Z,0
2023-03-08T11:25:27.781Z,0
2023-03-08T11:26:27.774Z,0
2023-03-08T11:27:27.760Z,0
2023-03-08T11:28:27.753Z,0
2023-03-08T11:29:27.755Z,0
2023-03-08T11:30:27.766Z,0
2023-03-08T11:31:27.837Z,0
2023-03-08T11:32:27.829Z,0
2023-03-08T11:33:27.990Z,0
2023-03-08T11:34:27.763Z,0
2023-03-08T11:35:27.752Z,0
2023-03-08T11:36:27.762Z,0
2023-03-08T11:37:27.769Z,0
2023-03-08T11:38:27.757Z,0
2023-03-08T11:39:27.771Z,0
2023-03-08T11:40:27.780Z,0
2023-03-08T11:41:27.786Z,0
2023-03-08T11:42:27.795Z,0
2023-03-08T11:43:27.785Z,0
2023-03-08T11:44:27.779Z,3.4000000000000004
2023-03-08T11:45:27.782Z,0
2023-03-08T11:46:27.825Z,0
2023-03-08T11:47:27.812Z,0
2023-03-08T11:48:27.803Z,0
2023-03-08T11:49:27.798Z,0
2023-03-08T11:50:27.777Z,0
2023-03-08T11:51:27.780Z,0
2023-03-08T11:52:27.786Z,0
2023-03-08T11:53:27.795Z,5.300000000000001
2023-03-08T11:54:27.784Z,1.6
2023-03-08T11:55:27.822Z,0
2023-03-08T11:56:27.809Z,0
2023-03-08T11:57:27.793Z,3.2
2023-03-08T11:58:27.826Z,0
2023-03-08T11:59:27.802Z,0
2023-03-08T12:00:27.804Z,0
2023-03-08T12:01:27.825Z,0
2023-03-08T12:02:27.807Z,0
2023-03-08T12:03:27.847Z,0
2023-03-08T12:04:27.954Z,0
2023-03-08T12:05:27.839Z,0
2023-03-08T12:06:29.429Z,0
2023-03-08T12:07:27.972Z,0
2023-03-08T12:08:27.878Z,0
2023-03-08T12:09:27.813Z,0
2023-03-08T12:10:27.866Z,0
2023-03-08T12:11:27.821Z,0
2023-03-08T12:12:27.827Z,0
2023-03-08T12:13:27.805Z,0
2023-03-08T12:14:27.959Z,1.2000000000000002
2023-03-08T12:15:27.859Z,0
2023-03-08T12:16:27.922Z,0
2023-03-08T12:17:27.885Z,0
2023-03-08T12:18:27.810Z,0
2023-03-08T12:19:27.821Z,0
2023-03-08T12:20:27.825Z,0
2023-03-08T12:21:27.812Z,0
2023-03-08T12:22:27.837Z,5
2023-03-08T12:23:27.816Z,2.2
2023-03-08T12:24:27.889Z,1.9000000000000001
2023-03-08T12:25:27.815Z,0
2023-03-08T12:26:27.820Z,0
2023-03-08T12:27:27.812Z,0
2023-03-08T12:28:27.828Z,0
2023-03-08T12:29:27.841Z,0
2023-03-08T12:30:27.881Z,0
2023-03-08T12:31:29.014Z,0
2023-03-08T12:32:28.011Z,2.6
2023-03-08T12:33:27.960Z,0
2023-03-08T12:34:27.823Z,1.9000000000000001
2023-03-08T12:35:27.847Z,3.5
2023-03-08T12:36:27.954Z,0
2023-03-08T12:37:27.901Z,0
2023-03-08T12:38:27.861Z,0
2023-03-08T12:39:27.913Z,0
2023-03-08T12:40:27.886Z,0
2023-03-08T12:41:27.879Z,0
2023-03-08T12:42:27.822Z,0
2023-03-08T12:43:27.821Z,3.1
2023-03-08T12:44:27.829Z,0
2023-03-08T12:45:27.827Z,0
2023-03-08T12:46:27.873Z,0
2023-03-08T12:47:27.876Z,0
2023-03-08T12:48:27.911Z,0
2023-03-08T12:49:27.946Z,0
2023-03-08T12:50:27.891Z,0
2023-03-08T12:51:27.876Z,0
2023-03-08T12:52:27.888Z,0
2023-03-08T12:53:27.863Z,0
2023-03-08T12:54:27.844Z,0
2023-03-08T12:55:27.843Z,0
2023-03-08T12:56:29.616Z,0
2023-03-08T12:57:27.830Z,0
2023-03-08T12:58:27.834Z,1.2000000000000002
2023-03-08T12:59:27.829Z,0.6000000000000001
2023-03-08T13:00:27.847Z,7.800000000000001
2023-03-08T13:01:27.963Z,3.1
2023-03-08T13:02:27.856Z,0
2023-03-08T13:03:27.834Z,0
2023-03-08T13:04:39.605Z,0
2023-03-08T13:05:27.837Z,0
2023-03-08T13:06:27.840Z,0
2023-03-08T13:07:27.857Z,0
2023-03-08T13:08:27.843Z,0
2023-03-08T13:09:27.865Z,0
2023-03-08T13:10:27.838Z,0
2023-03-08T13:11:27.840Z,0
2023-03-08T13:12:27.847Z,0
2023-03-08T13:13:37.837Z,0
2023-03-08T13:14:27.839Z,0
2023-03-08T13:15:27.837Z,0
2023-03-08T13:16:27.924Z,0
2023-03-08T13:17:27.839Z,0
2023-03-08T13:18:27.882Z,0
2023-03-08T13:19:27.862Z,0
2023-03-08T13:20:27.872Z,0
2023-03-08T13:21:27.949Z,0
2023-03-08T13:22:27.937Z,0
2023-03-08T13:23:27.886Z,0
2023-03-08T13:24:27.848Z,0
2023-03-08T13:25:27.904Z,0
2023-03-08T13:26:28.850Z,0
2023-03-08T13:27:27.902Z,0
2023-03-08T13:28:37.726Z,0
2023-03-08T13:29:27.863Z,0
2023-03-08T13:30:27.880Z,0
2023-03-08T13:31:27.862Z,0
2023-03-08T13:32:27.881Z,0.4
2023-03-08T13:33:27.878Z,0
2023-03-08T13:34:27.903Z,0
2023-03-08T13:35:27.869Z,0
2023-03-08T13:36:27.874Z,0
2023-03-08T13:37:27.871Z,0
2023-03-08T13:38:27.879Z,0
2023-03-08T13:39:27.875Z,0
2023-03-08T13:40:27.871Z,0
2023-03-08T13:41:27.889Z,0
2023-03-08T13:42:27.912Z,0
2023-03-08T13:43:27.885Z,0
2023-03-08T13:44:27.872Z,0